createdAt,value
2023-12-24T00:00:43.951Z,61.53
2023-12-24T00:01:43.936Z,60.93
2023-12-24T00:02:44.205Z,61.85
2023-12-24T00:03:44.142Z,61.31
2023-12-24T00:04:44.176Z,62.76
2023-12-24T00:05:44.315Z,62.27
2023-12-24T00:06:44.276Z,61.31
2023-12-24T00:07:44.339Z,61.86
2023-12-24T00:08:44.566Z,60.02
2023-12-24T00:09:44.459Z,61.67
2023-12-24T00:10:44.482Z,61.44
2023-12-24T00:11:44.590Z,63.11
2023-12-24T00:12:44.608Z,60.66
2023-12-24T00:13:44.672Z,61.97
2023-12-24T00:14:44.780Z,61.66
2023-12-24T00:15:44.792Z,61.20
2023-12-24T00:16:44.854Z,61.79
2023-12-24T00:17:45.008Z,60.46
2023-12-24T00:18:45.086Z,61.36
2023-12-24T00:19:45.064Z,61.89
2023-12-24T00:20:45.143Z,61.07
2023-12-24T00:21:45.193Z,60.25
2023-12-24T00:22:45.228Z,61.19
2023-12-24T00:23:45.284Z,61.74
2023-12-24T00:24:45.325Z,60.93
2023-12-24T00:25:45.366Z,61.16
2023-12-24T00:26:45.477Z,60.27
2023-12-24T00:27:45.561Z,61.15
2023-12-24T00:28:45.621Z,61.62
2023-12-24T00:29:45.681Z,59.66
2023-12-24T00:30:45.707Z,60.42
2023-12-24T00:31:45.761Z,60.19
2023-12-24T00:32:45.907Z,62.17
2023-12-24T00:33:45.983Z,60.80
2023-12-24T00:34:45.960Z,61.10
2023-12-24T00:35:46.026Z,60.94
2023-12-24T00:36:46.057Z,60.46
2023-12-24T00:37:46.126Z,62.17
2023-12-24T00:38:46.188Z,61.02
2023-12-24T00:39:46.249Z,60.25
2023-12-24T00:40:46.301Z,60.05
2023-12-24T00:41:46.377Z,60.20
2023-12-24T00:42:46.486Z,59.95
2023-12-24T00:43:46.482Z,61.59
2023-12-24T00:44:46.571Z,61.45
2023-12-24T00:45:46.659Z,60.54
2023-12-24T00:46:46.711Z,61.89
2023-12-24T00:47:47.126Z,61.62
2023-12-24T00:48:46.923Z,61.43
2023-12-24T00:49:46.907Z,60.67
2023-12-24T00:50:47.008Z,61.69
2023-12-24T00:51:47.054Z,61.05
2023-12-24T00:52:47.101Z,60.33
2023-12-24T00:53:47.220Z,60.45
2023-12-24T00:54:47.235Z,61.17
2023-12-24T00:55:47.349Z,61.45
2023-12-24T00:56:47.346Z,59.81
2023-12-24T00:57:47.404Z,60.96
2023-12-24T00:58:47.484Z,62.06
2023-12-24T00:59:47.520Z,61.18
2023-12-24T01:00:47.790Z,60.34
2023-12-24T01:01:47.642Z,59.29
2023-12-24T01:02:47.705Z,60.94
2023-12-24T01:03:47.843Z,61.60
2023-12-24T01:04:47.831Z,60.54
2023-12-24T01:05:47.995Z,61.19
2023-12-24T01:06:47.982Z,61.49
2023-12-24T01:07:48.026Z,61.75
2023-12-24T01:08:48.098Z,61.08
2023-12-24T01:09:48.204Z,61.50
2023-12-24T01:10:50.584Z,59.67
2023-12-24T01:11:48.269Z,61.72
2023-12-24T01:12:48.333Z,60.39
2023-12-24T01:13:48.286Z,63.25
2023-12-24T01:14:48.284Z,61.23
2023-12-24T01:15:48.281Z,60.79
2023-12-24T01:16:48.254Z,62.08
2023-12-24T01:17:48.399Z,60.43
2023-12-24T01:18:48.348Z,61.13
2023-12-24T01:19:48.280Z,60.57
2023-12-24T01:20:48.256Z,59.94
2023-12-24T01:21:48.288Z,60.80
2023-12-24T01:22:48.308Z,61.49
2023-12-24T01:23:48.304Z,61.37
2023-12-24T01:24:48.275Z,61.49
2023-12-24T01:25:48.294Z,61.23
2023-12-24T01:26:48.343Z,62.09
2023-12-24T01:27:48.275Z,60.20
2023-12-24T01:28:48.287Z,62.36
2023-12-24T01:29:48.300Z,60.99
2023-12-24T01:30:48.335Z,62.48
2023-12-24T01:31:48.287Z,60.89
2023-12-24T01:32:48.515Z,61.48
2023-12-24T01:33:48.387Z,61.33
2023-12-24T01:34:48.284Z,61.32
2023-12-24T01:35:48.408Z,60.32
2023-12-24T01:36:48.299Z,61.96
2023-12-24T01:37:48.308Z,61.94
2023-12-24T01:38:48.316Z,62.89
2023-12-24T01:39:48.317Z,62.49
2023-12-24T01:40:48.428Z,62.90
2023-12-24T01:41:48.443Z,61.90
2023-12-24T01:42:48.542Z,62.07
2023-12-24T01:43:48.648Z,60.97
2023-12-24T01:44:48.629Z,61.97
2023-12-24T01:45:48.673Z,61.48
2023-12-24T01:46:48.700Z,61.51
2023-12-24T01:47:52.378Z,63.75
2023-12-24T01:48:49.695Z,63.77
2023-12-24T01:49:48.795Z,63.93
2023-12-24T01:50:48.966Z,63.69
2023-12-24T01:51:48.814Z,63.18
2023-12-24T01:52:48.889Z,62.33
2023-12-24T01:53:48.823Z,63.24
2023-12-24T01:54:48.932Z,65.39
2023-12-24T01:55:48.867Z,62.78
2023-12-24T01:56:48.825Z,63.32
2023-12-24T01:57:48.848Z,62.73
2023-12-24T01:58:48.879Z,63.09
2023-12-24T01:59:48.820Z,63.50
2023-12-24T02:00:48.839Z,60.89
2023-12-24T02:01:48.818Z,62.48
2023-12-24T02:02:48.978Z,61.42
2023-12-24T02:03:49.155Z,63.69
2023-12-24T02:04:48.928Z,61.06
2023-12-24T02:05:48.890Z,62.67
2023-12-24T02:06:48.814Z,61.82
2023-12-24T02:07:48.855Z,62.36
2023-12-24T02:08:48.927Z,63.51
2023-12-24T02:09:48.999Z,62.13
2023-12-24T02:10:49.041Z,62.89
2023-12-24T02:11:49.156Z,61.91
2023-12-24T02:12:49.336Z,62.67
2023-12-24T02:13:49.265Z,62.34
2023-12-24T02:14:49.363Z,62.40
2023-12-24T02:15:49.385Z,62.30
2023-12-24T02:16:49.489Z,62.05
2023-12-24T02:17:49.633Z,63.47
2023-12-24T02:18:49.780Z,62.06
2023-12-24T02:19:49.661Z,62.69
2023-12-24T02:20:49.731Z,63.25
2023-12-24T02:21:49.784Z,62.63
2023-12-24T02:22:50.052Z,61.39
2023-12-24T02:23:49.913Z,63.18
2023-12-24T02:24:49.921Z,62.34
2023-12-24T02:25:50.014Z,61.44
2023-12-24T02:26:50.077Z,62.52
2023-12-24T02:27:50.147Z,62.66
2023-12-24T02:28:50.210Z,61.88
2023-12-24T02:29:50.311Z,61.81
2023-12-24T02:30:50.433Z,61.16
2023-12-24T02:31:50.398Z,62.36
2023-12-24T02:32:50.662Z,61.96
2023-12-24T02:33:50.776Z,62.21
2023-12-24T02:34:50.593Z,62.02
2023-12-24T02:35:50.679Z,61.89
2023-12-24T02:36:50.692Z,61.92
2023-12-24T02:37:50.773Z,61.10
2023-12-24T02:38:51.154Z,62.91
2023-12-24T02:39:50.921Z,61.73
2023-12-24T02:40:50.949Z,62.00
2023-12-24T02:41:51.001Z,62.54
2023-12-24T02:42:51.396Z,62.20
2023-12-24T02:43:51.159Z,62.43
2023-12-24T02:44:51.166Z,62.59
2023-12-24T02:45:51.248Z,61.29
2023-12-24T02:46:51.305Z,62.37
2023-12-24T02:47:51.560Z,62.46
2023-12-24T02:48:51.741Z,61.37
2023-12-24T02:49:51.480Z,63.26
2023-12-24T02:50:51.588Z,62.79
2023-12-24T02:51:51.626Z,61.39
2023-12-24T02:52:51.987Z,61.53
2023-12-24T02:53:52.149Z,61.87
2023-12-24T02:54:51.848Z,62.10
2023-12-24T02:55:51.900Z,60.77
2023-12-24T02:56:51.960Z,61.44
2023-12-24T02:57:52.028Z,60.43
2023-12-24T02:58:52.121Z,61.09
2023-12-24T02:59:52.166Z,61.70
2023-12-24T03:00:52.288Z,62.00
2023-12-24T03:01:52.282Z,60.25
2023-12-24T03:02:52.622Z,61.88
2023-12-24T03:03:52.641Z,61.44
2023-12-24T03:04:52.510Z,61.99
2023-12-24T03:05:52.665Z,59.98
2023-12-24T03:06:52.635Z,60.35
2023-12-24T03:07:54.908Z,61.84
2023-12-24T03:08:56.678Z,62.52
2023-12-24T03:09:53.696Z,61.68
2023-12-24T03:10:53.691Z,62.43
2023-12-24T03:11:54.704Z,61.86
2023-12-24T03:12:58.003Z,61.32
2023-12-24T03:13:58.312Z,62.62
2023-12-24T03:14:52.950Z,62.68
2023-12-24T03:15:53.034Z,62.88
2023-12-24T03:16:53.099Z,62.78
2023-12-24T03:17:53.289Z,62.02
2023-12-24T03:18:53.279Z,62.00
2023-12-24T03:19:53.330Z,60.82
2023-12-24T03:20:53.378Z,62.92
2023-12-24T03:21:53.441Z,60.77
2023-12-24T03:22:53.684Z,60.46
2023-12-24T03:23:53.561Z,61.17
2023-12-24T03:24:53.636Z,61.03
2023-12-24T03:25:53.702Z,60.54
2023-12-24T03:26:53.749Z,60.56
2023-12-24T03:27:53.826Z,61.00
2023-12-24T03:28:53.875Z,60.15
2023-12-24T03:29:53.931Z,59.97
2023-12-24T03:30:54.063Z,60.63
2023-12-24T03:31:54.077Z,59.97
2023-12-24T03:32:54.426Z,60.06
2023-12-24T03:33:54.144Z,60.16
2023-12-24T03:34:55.656Z,60.14
2023-12-24T03:35:54.093Z,60.25
2023-12-24T03:36:54.082Z,60.60
2023-12-24T03:37:54.103Z,61.33
2023-12-24T03:38:54.145Z,59.68
2023-12-24T03:39:54.109Z,60.42
2023-12-24T03:40:54.077Z,60.49
2023-12-24T03:41:54.100Z,59.41
2023-12-24T03:42:55.669Z,60.84
2023-12-24T03:43:54.182Z,59.96
2023-12-24T03:44:54.242Z,61.10
2023-12-24T03:45:54.248Z,59.28
2023-12-24T03:46:54.293Z,58.84
2023-12-24T03:47:54.658Z,58.31
2023-12-24T03:48:54.726Z,59.87
2023-12-24T03:49:54.508Z,58.75
2023-12-24T03:50:54.607Z,59.67
2023-12-24T03:51:54.632Z,59.15
2023-12-24T03:52:57.368Z,59.98
2023-12-24T03:53:54.682Z,60.03
2023-12-24T03:54:54.664Z,60.09
2023-12-24T03:55:54.698Z,58.10
2023-12-24T03:56:54.685Z,59.51
2023-12-24T03:57:56.703Z,57.90
2023-12-24T03:58:55.679Z,59.23
2023-12-24T03:59:54.745Z,58.98
2023-12-24T04:00:54.781Z,58.62
2023-12-24T04:01:55.693Z,58.74
2023-12-24T04:02:54.847Z,58.86
2023-12-24T04:03:55.308Z,59.26
2023-12-24T04:04:54.740Z,58.82
2023-12-24T04:05:54.853Z,59.16
2023-12-24T04:06:55.761Z,58.15
2023-12-24T04:07:54.723Z,58.80
2023-12-24T04:08:55.182Z,59.38
2023-12-24T04:09:54.728Z,59.36
2023-12-24T04:10:54.735Z,58.74
2023-12-24T04:11:54.848Z,59.60
2023-12-24T04:12:56.327Z,58.88
2023-12-24T04:13:55.892Z,58.94
2023-12-24T04:14:54.897Z,59.20
2023-12-24T04:15:54.882Z,59.39
2023-12-24T04:16:54.912Z,59.55
2023-12-24T04:17:55.226Z,60.00
2023-12-24T04:18:54.969Z,58.88
2023-12-24T04:19:54.868Z,59.05
2023-12-24T04:20:54.879Z,59.71
2023-12-24T04:21:54.896Z,58.79
2023-12-24T04:22:55.046Z,58.26
2023-12-24T04:23:56.687Z,57.50
2023-12-24T04:24:54.961Z,57.07
2023-12-24T04:25:54.963Z,56.58
2023-12-24T04:26:54.924Z,58.61
2023-12-24T04:27:54.934Z,58.41
2023-12-24T04:28:55.177Z,59.23
2023-12-24T04:29:54.954Z,59.45
2023-12-24T04:30:54.980Z,57.54
2023-12-24T04:31:54.925Z,58.78
2023-12-24T04:32:55.333Z,58.38
2023-12-24T04:34:02.812Z,50.00
2023-12-24T04:35:02.756Z,50.00
2023-12-24T04:36:02.750Z,50.00
2023-12-24T04:37:02.740Z,50.00
2023-12-24T04:38:02.770Z,50.00
2023-12-24T04:39:02.770Z,52.06
2023-12-24T04:40:02.767Z,50.56
2023-12-24T04:41:02.791Z,51.83
2023-12-24T04:42:02.772Z,50.96
2023-12-24T04:43:02.787Z,51.26
2023-12-24T04:44:03.437Z,50.55
2023-12-24T04:45:02.793Z,51.82
2023-12-24T04:46:02.819Z,51.40
2023-12-24T04:47:02.815Z,51.79
2023-12-24T04:48:02.843Z,51.85
2023-12-24T04:49:02.892Z,51.77
2023-12-24T04:50:02.791Z,50.52
2023-12-24T04:51:02.813Z,50.19
2023-12-24T04:52:02.895Z,52.02
2023-12-24T04:53:02.978Z,50.67
2023-12-24T04:54:03.373Z,52.87
2023-12-24T04:55:03.084Z,51.46
2023-12-24T04:56:03.157Z,52.31
2023-12-24T04:57:03.205Z,52.68
2023-12-24T04:58:03.310Z,52.79
2023-12-24T04:59:03.392Z,51.02
2023-12-24T05:00:03.434Z,50.05
2023-12-24T05:01:03.555Z,50.55
2023-12-24T05:02:03.833Z,52.23
2023-12-24T05:03:03.647Z,51.14
2023-12-24T05:04:03.899Z,50.69
2023-12-24T05:05:03.948Z,52.54
2023-12-24T05:06:03.964Z,53.52
2023-12-24T05:07:03.875Z,51.33
2023-12-24T05:08:04.011Z,51.65
2023-12-24T05:09:04.064Z,53.38
2023-12-24T05:10:04.227Z,52.72
2023-12-24T05:11:04.918Z,51.11
2023-12-24T05:12:04.260Z,52.50
2023-12-24T05:13:04.337Z,53.88
2023-12-24T05:14:04.506Z,53.32
2023-12-24T05:15:04.493Z,52.75
2023-12-24T05:16:04.535Z,53.87
2023-12-24T05:17:04.612Z,52.78
2023-12-24T05:18:04.831Z,51.30
2023-12-24T05:19:04.922Z,51.95
2023-12-24T05:20:04.905Z,51.56
2023-12-24T05:21:04.863Z,52.43
2023-12-24T05:22:04.971Z,51.22
2023-12-24T05:23:04.952Z,51.35
2023-12-24T05:24:04.952Z,51.58
2023-12-24T05:25:04.966Z,52.06
2023-12-24T05:26:05.027Z,52.32
2023-12-24T05:27:05.016Z,51.66
2023-12-24T05:28:04.993Z,52.71
2023-12-24T05:29:04.972Z,51.79
2023-12-24T05:30:05.085Z,53.39
2023-12-24T05:31:05.070Z,52.95
2023-12-24T05:32:05.368Z,52.26
2023-12-24T05:33:05.271Z,53.18
2023-12-24T05:34:05.448Z,52.92
2023-12-24T05:35:05.379Z,53.08
2023-12-24T05:36:05.429Z,52.41
2023-12-24T05:37:05.492Z,52.00
2023-12-24T05:38:05.627Z,51.82
2023-12-24T05:39:05.905Z,53.24
2023-12-24T05:40:05.705Z,52.51
2023-12-24T05:41:05.764Z,52.36
2023-12-24T05:42:05.846Z,53.53
2023-12-24T05:43:05.923Z,52.75
2023-12-24T05:44:06.050Z,53.35
2023-12-24T05:45:06.077Z,52.22
2023-12-24T05:46:06.160Z,51.75
2023-12-24T05:47:06.247Z,51.51
2023-12-24T05:48:06.373Z,52.17
2023-12-24T05:49:06.389Z,51.37
2023-12-24T05:50:06.447Z,51.75
2023-12-24T05:51:06.486Z,52.48
2023-12-24T05:52:06.578Z,51.34
2023-12-24T05:53:06.695Z,53.39
2023-12-24T05:54:06.910Z,54.58
2023-12-24T05:55:06.752Z,53.47
2023-12-24T05:56:06.863Z,53.46
2023-12-24T05:57:06.927Z,51.64
2023-12-24T05:58:07.000Z,52.87
2023-12-24T05:59:07.137Z,53.69
2023-12-24T06:00:07.123Z,52.26
2023-12-24T06:01:07.249Z,52.32
2023-12-24T06:02:07.343Z,52.40
2023-12-24T06:03:07.335Z,52.12
2023-12-24T06:04:07.380Z,52.62
2023-12-24T06:05:08.507Z,52.73
2023-12-24T06:06:07.477Z,52.77
2023-12-24T06:07:07.402Z,53.64
2023-12-24T06:08:07.469Z,52.64
2023-12-24T06:09:08.032Z,54.13
2023-12-24T06:10:07.444Z,54.38
2023-12-24T06:11:07.472Z,54.10
2023-12-24T06:12:07.408Z,52.55
2023-12-24T06:13:07.458Z,53.54
2023-12-24T06:14:07.951Z,53.25
2023-12-24T06:15:07.761Z,52.43
2023-12-24T06:16:07.673Z,54.39
2023-12-24T06:17:07.858Z,53.13
2023-12-24T06:18:08.047Z,52.42
2023-12-24T06:19:08.679Z,54.03
2023-12-24T06:20:08.133Z,52.53
2023-12-24T06:21:08.109Z,52.84
2023-12-24T06:22:08.125Z,53.47
2023-12-24T06:23:08.236Z,54.80
2023-12-24T06:24:08.301Z,54.67
2023-12-24T06:25:08.313Z,53.45
2023-12-24T06:26:08.629Z,54.45
2023-12-24T06:27:08.481Z,52.87
2023-12-24T06:28:08.539Z,54.11
2023-12-24T06:29:08.656Z,52.73
2023-12-24T06:30:08.729Z,54.49
2023-12-24T06:31:08.735Z,54.49
2023-12-24T06:32:08.914Z,53.06
2023-12-24T06:33:08.849Z,55.87
2023-12-24T06:34:09.463Z,54.49
2023-12-24T06:35:09.032Z,53.18
2023-12-24T06:36:09.043Z,54.18
2023-12-24T06:37:09.100Z,52.92
2023-12-24T06:38:09.244Z,53.38
2023-12-24T06:39:09.283Z,53.26
2023-12-24T06:40:09.345Z,54.72
2023-12-24T06:41:09.369Z,53.81
2023-12-24T06:42:09.441Z,54.17
2023-12-24T06:43:09.504Z,54.33
2023-12-24T06:44:09.669Z,53.71
2023-12-24T06:45:09.675Z,52.58
2023-12-24T06:46:09.731Z,54.50
2023-12-24T06:47:09.812Z,53.91
2023-12-24T06:48:10.040Z,51.75
2023-12-24T06:49:09.922Z,53.29
2023-12-24T06:50:10.013Z,52.05
2023-12-24T06:51:10.028Z,51.90
2023-12-24T06:52:10.139Z,53.97
2023-12-24T06:53:10.228Z,54.12
2023-12-24T06:54:10.230Z,53.11
2023-12-24T06:55:10.365Z,54.20
2023-12-24T06:56:10.473Z,53.61
2023-12-24T06:57:11.391Z,54.93
2023-12-24T06:58:10.543Z,52.30
2023-12-24T06:59:10.964Z,52.12
2023-12-24T07:00:10.674Z,55.40
2023-12-24T07:01:10.844Z,53.00
2023-12-24T07:02:10.827Z,54.43
2023-12-24T07:03:10.932Z,56.49
2023-12-24T07:04:10.990Z,54.73
2023-12-24T07:05:11.006Z,55.31
2023-12-24T07:06:11.163Z,53.18
2023-12-24T07:07:11.141Z,54.75
2023-12-24T07:08:11.314Z,54.07
2023-12-24T07:09:11.331Z,54.41
2023-12-24T07:10:11.374Z,54.94
2023-12-24T07:11:11.441Z,53.92
2023-12-24T07:12:11.495Z,55.26
2023-12-24T07:13:11.560Z,54.16
2023-12-24T07:14:11.640Z,54.66
2023-12-24T07:15:12.432Z,54.81
2023-12-24T07:16:11.793Z,55.17
2023-12-24T07:17:11.917Z,55.04
2023-12-24T07:18:12.040Z,55.37
2023-12-24T07:19:11.977Z,54.75
2023-12-24T07:20:12.054Z,54.85
2023-12-24T07:21:12.078Z,54.54
2023-12-24T07:22:12.146Z,55.95
2023-12-24T07:23:12.384Z,55.11
2023-12-24T07:24:12.313Z,54.94
2023-12-24T07:25:12.424Z,55.27
2023-12-24T07:26:12.450Z,54.57
2023-12-24T07:27:13.388Z,54.90
2023-12-24T07:28:12.590Z,53.40
2023-12-24T07:29:12.611Z,53.54
2023-12-24T07:30:15.435Z,54.04
2023-12-24T07:31:12.599Z,54.96
2023-12-24T07:32:12.664Z,55.85
2023-12-24T07:33:15.467Z,56.22
2023-12-24T07:34:13.084Z,53.63
2023-12-24T07:35:12.678Z,54.06
2023-12-24T07:36:12.642Z,54.14
2023-12-24T07:37:12.581Z,55.46
2023-12-24T07:38:12.681Z,55.52
2023-12-24T07:39:12.598Z,56.66
2023-12-24T07:40:12.634Z,55.64
2023-12-24T07:41:12.651Z,54.74
2023-12-24T07:42:12.634Z,56.04
2023-12-24T07:43:12.628Z,55.59
2023-12-24T07:44:12.667Z,56.02
2023-12-24T07:45:12.645Z,55.21
2023-12-24T07:46:12.658Z,54.89
2023-12-24T07:47:12.630Z,54.19
2023-12-24T07:48:12.701Z,54.72
2023-12-24T07:49:12.726Z,53.97
2023-12-24T07:50:12.825Z,55.44
2023-12-24T07:51:12.631Z,54.70
2023-12-24T07:52:12.650Z,54.28
2023-12-24T07:53:12.660Z,54.41
2023-12-24T07:54:12.924Z,55.42
2023-12-24T07:55:12.676Z,56.41
2023-12-24T07:56:12.696Z,56.37
2023-12-24T07:57:12.695Z,54.30
2023-12-24T07:58:12.697Z,56.40
2023-12-24T07:59:12.797Z,55.60
2023-12-24T08:00:12.644Z,54.89
2023-12-24T08:01:12.668Z,56.17
2023-12-24T08:02:12.707Z,55.50
2023-12-24T08:03:12.715Z,57.15
2023-12-24T08:04:12.748Z,56.93
2023-12-24T08:05:12.942Z,54.85
2023-12-24T08:06:15.955Z,56.60
2023-12-24T08:07:14.148Z,56.72
2023-12-24T08:08:13.019Z,56.88
2023-12-24T08:09:13.086Z,57.19
2023-12-24T08:10:13.139Z,56.74
2023-12-24T08:11:17.075Z,59.47
2023-12-24T08:12:14.948Z,56.72
2023-12-24T08:13:14.514Z,56.97
2023-12-24T08:14:13.224Z,57.67
2023-12-24T08:15:13.221Z,58.11
2023-12-24T08:16:13.227Z,57.46
2023-12-24T08:17:13.296Z,58.27
2023-12-24T08:18:13.380Z,57.35
2023-12-24T08:19:13.340Z,57.06
2023-12-24T08:20:13.322Z,57.70
2023-12-24T08:21:13.404Z,58.43
2023-12-24T08:22:13.475Z,57.53
2023-12-24T08:23:13.501Z,57.61
2023-12-24T08:24:13.542Z,57.82
2023-12-24T08:25:13.497Z,58.10
2023-12-24T08:26:14.986Z,58.10
2023-12-24T08:27:13.443Z,58.77
2023-12-24T08:28:13.471Z,58.33
2023-12-24T08:29:13.594Z,59.16
2023-12-24T08:30:13.523Z,59.40
2023-12-24T08:31:13.585Z,59.88
2023-12-24T08:32:13.702Z,58.12
2023-12-24T08:33:14.025Z,58.57
2023-12-24T08:34:14.046Z,58.91
2023-12-24T08:35:13.901Z,56.28
2023-12-24T08:36:13.913Z,57.72
2023-12-24T08:37:13.990Z,59.01
2023-12-24T08:38:14.066Z,59.12
2023-12-24T08:39:14.474Z,58.40
2023-12-24T08:40:14.174Z,58.04
2023-12-24T08:41:14.325Z,57.85
2023-12-24T08:42:14.339Z,58.17
2023-12-24T08:43:14.372Z,58.78
2023-12-24T08:44:14.982Z,58.48
2023-12-24T08:45:14.484Z,59.08
2023-12-24T08:46:14.597Z,57.44
2023-12-24T08:47:14.728Z,59.08
2023-12-24T08:48:14.956Z,57.47
2023-12-24T08:49:14.947Z,56.46
2023-12-24T08:50:15.012Z,57.53
2023-12-24T08:51:14.981Z,57.29
2023-12-24T08:52:15.021Z,58.40
2023-12-24T08:53:15.082Z,57.40
2023-12-24T08:54:15.185Z,56.66
2023-12-24T08:55:17.428Z,57.90
2023-12-24T08:56:15.416Z,58.02
2023-12-24T08:57:15.441Z,59.04
2023-12-24T08:58:15.528Z,58.61
2023-12-24T08:59:15.644Z,58.46
2023-12-24T09:00:15.663Z,58.33
2023-12-24T09:01:15.810Z,57.39
2023-12-24T09:02:15.808Z,57.78
2023-12-24T09:03:15.867Z,57.94
2023-12-24T09:04:15.919Z,59.27
2023-12-24T09:05:16.043Z,57.15
2023-12-24T09:06:16.109Z,58.16
2023-12-24T09:07:16.127Z,58.74
2023-12-24T09:08:16.255Z,58.55
2023-12-24T09:09:16.270Z,58.81
2023-12-24T09:10:16.274Z,57.82
2023-12-24T09:11:16.352Z,57.47
2023-12-24T09:12:16.424Z,57.69
2023-12-24T09:13:16.488Z,58.80
2023-12-24T09:14:16.585Z,57.69
2023-12-24T09:15:16.572Z,58.40
2023-12-24T09:16:16.585Z,59.23
2023-12-24T09:17:16.760Z,58.08
2023-12-24T09:18:16.976Z,57.92
2023-12-24T09:19:16.849Z,58.71
2023-12-24T09:20:16.920Z,57.76
2023-12-24T09:21:16.900Z,58.47
2023-12-24T09:22:16.947Z,59.03
2023-12-24T09:23:17.073Z,57.29
2023-12-24T09:24:17.473Z,59.06
2023-12-24T09:25:17.199Z,58.15
2023-12-24T09:26:17.247Z,58.36
2023-12-24T09:27:17.313Z,58.83
2023-12-24T09:28:17.399Z,57.86
2023-12-24T09:29:17.542Z,59.01
2023-12-24T09:30:18.492Z,59.39
2023-12-24T09:31:17.608Z,58.76
2023-12-24T09:32:17.711Z,58.02
2023-12-24T09:33:17.795Z,60.48
2023-12-24T09:34:18.074Z,59.26
2023-12-24T09:35:17.925Z,58.87
2023-12-24T09:36:17.942Z,59.65
2023-12-24T09:37:18.010Z,58.08
2023-12-24T09:38:18.211Z,59.48
2023-12-24T09:39:18.949Z,58.81
2023-12-24T09:40:18.200Z,58.98
2023-12-24T09:41:18.294Z,60.43
2023-12-24T09:42:18.311Z,60.05
2023-12-24T09:43:18.386Z,58.92
2023-12-24T09:44:18.494Z,59.57
2023-12-24T09:45:18.581Z,59.29
2023-12-24T09:46:18.623Z,58.71
2023-12-24T09:47:18.736Z,59.40
2023-12-24T09:48:18.959Z,59.75
2023-12-24T09:49:18.956Z,59.76
2023-12-24T09:50:18.957Z,60.80
2023-12-24T09:51:18.979Z,60.39
2023-12-24T09:52:19.028Z,60.70
2023-12-24T09:53:19.163Z,58.73
2023-12-24T09:54:19.511Z,59.66
2023-12-24T09:55:19.275Z,59.26
2023-12-24T09:56:19.349Z,61.47
2023-12-24T09:57:19.432Z,59.17
2023-12-24T09:58:19.487Z,61.10
2023-12-24T09:59:19.544Z,62.14
2023-12-24T10:00:19.624Z,60.60
2023-12-24T10:01:19.672Z,59.56
2023-12-24T10:02:19.797Z,61.87
2023-12-24T10:03:19.797Z,60.23
2023-12-24T10:04:19.865Z,59.06
2023-12-24T10:05:20.023Z,61.60
2023-12-24T10:06:20.036Z,60.00
2023-12-24T10:07:20.028Z,59.89
2023-12-24T10:08:20.113Z,61.54
2023-12-24T10:09:20.482Z,60.37
2023-12-24T10:10:20.228Z,60.97
2023-12-24T10:11:20.306Z,62.45
2023-12-24T10:12:20.465Z,62.62
2023-12-24T10:13:20.438Z,60.92
2023-12-24T10:14:20.990Z,60.46
2023-12-24T10:15:20.577Z,62.17
2023-12-24T10:16:20.672Z,62.33
2023-12-24T10:17:20.721Z,61.43
2023-12-24T10:18:21.010Z,62.26
2023-12-24T10:19:20.897Z,62.15
2023-12-24T10:20:20.912Z,61.25
2023-12-24T10:21:21.014Z,62.33
2023-12-24T10:22:21.086Z,62.44
2023-12-24T10:23:21.182Z,61.99
2023-12-24T10:24:21.158Z,61.54
2023-12-24T10:25:21.236Z,61.33
2023-12-24T10:26:21.354Z,62.29
2023-12-24T10:27:21.383Z,62.46
2023-12-24T10:28:21.498Z,60.66
2023-12-24T10:29:22.039Z,62.79
2023-12-24T10:30:21.648Z,64.00
2023-12-24T10:31:21.696Z,63.04
2023-12-24T10:32:21.785Z,62.11
2023-12-24T10:33:24.292Z,61.40
2023-12-24T10:34:21.909Z,65.25
2023-12-24T10:35:21.849Z,63.50
2023-12-24T10:36:21.829Z,62.47
2023-12-24T10:37:21.836Z,63.78
2023-12-24T10:38:21.900Z,62.04
2023-12-24T10:39:23.402Z,62.40
2023-12-24T10:40:21.835Z,62.48
2023-12-24T10:41:21.905Z,62.60
2023-12-24T10:42:21.882Z,62.77
2023-12-24T10:43:21.836Z,63.65
2023-12-24T10:44:22.015Z,63.22
2023-12-24T10:45:21.848Z,62.45
2023-12-24T10:46:21.847Z,64.63
2023-12-24T10:47:21.917Z,63.78
2023-12-24T10:48:22.086Z,65.43
2023-12-24T10:49:21.919Z,64.84
2023-12-24T10:50:21.978Z,63.59
2023-12-24T10:51:21.899Z,63.39
2023-12-24T10:52:21.847Z,62.03
2023-12-24T10:53:21.938Z,63.28
2023-12-24T10:54:21.899Z,64.17
2023-12-24T10:55:21.884Z,63.14
2023-12-24T10:56:21.920Z,62.71
2023-12-24T10:57:21.868Z,61.01
2023-12-24T10:58:21.876Z,62.70
2023-12-24T10:59:21.931Z,63.10
2023-12-24T11:00:21.894Z,63.30
2023-12-24T11:01:21.918Z,63.68
2023-12-24T11:02:21.925Z,62.96
2023-12-24T11:03:21.951Z,64.11
2023-12-24T11:04:21.993Z,62.59
2023-12-24T11:05:22.041Z,63.24
2023-12-24T11:06:22.199Z,62.70
2023-12-24T11:07:22.165Z,64.08
2023-12-24T11:08:22.225Z,64.36
2023-12-24T11:09:22.280Z,62.75
2023-12-24T11:10:22.391Z,64.68
2023-12-24T11:11:22.438Z,64.28
2023-12-24T11:12:22.472Z,64.09
2023-12-24T11:13:22.551Z,63.10
2023-12-24T11:14:23.024Z,64.41
2023-12-24T11:15:22.694Z,63.53
2023-12-24T11:16:22.762Z,65.74
2023-12-24T11:17:22.846Z,65.71
2023-12-24T11:18:22.984Z,64.91
2023-12-24T11:19:23.049Z,64.85
2023-12-24T11:20:23.062Z,63.86
2023-12-24T11:21:23.071Z,64.96
2023-12-24T11:22:23.142Z,63.62
2023-12-24T11:23:23.187Z,65.67
2023-12-24T11:24:23.303Z,63.30
2023-12-24T11:25:23.343Z,65.14
2023-12-24T11:26:23.467Z,65.27
2023-12-24T11:27:23.498Z,64.95
2023-12-24T11:28:23.601Z,64.75
2023-12-24T11:29:23.680Z,65.85
2023-12-24T11:30:23.760Z,65.29
2023-12-24T11:31:23.796Z,65.95
2023-12-24T11:32:23.886Z,64.86
2023-12-24T11:33:24.071Z,65.46
2023-12-24T11:34:24.047Z,65.86
2023-12-24T11:35:24.090Z,66.04
2023-12-24T11:36:24.096Z,66.37
2023-12-24T11:37:24.174Z,66.12
2023-12-24T11:38:24.269Z,66.92
2023-12-24T11:39:24.358Z,64.32
2023-12-24T11:40:24.368Z,65.44
2023-12-24T11:41:24.461Z,64.63
2023-12-24T11:42:24.506Z,65.29
2023-12-24T11:43:24.591Z,65.90
2023-12-24T11:44:24.692Z,66.04
2023-12-24T11:45:25.000Z,64.66
2023-12-24T11:46:24.863Z,64.70
2023-12-24T11:47:24.991Z,64.07
2023-12-24T11:48:25.069Z,66.48
2023-12-24T11:49:25.065Z,65.80
2023-12-24T11:50:25.144Z,66.48
2023-12-24T11:51:25.176Z,67.58
2023-12-24T11:52:25.255Z,66.06
2023-12-24T11:53:25.274Z,67.76
2023-12-24T11:54:25.381Z,66.16
2023-12-24T11:55:25.427Z,67.66
2023-12-24T11:56:25.513Z,67.93
2023-12-24T11:57:25.634Z,67.06
2023-12-24T11:58:25.632Z,67.40
2023-12-24T11:59:25.754Z,66.10
2023-12-24T12:00:26.257Z,66.98
2023-12-24T12:01:25.852Z,65.86
2023-12-24T12:02:25.928Z,66.94
2023-12-24T12:03:26.029Z,65.21
2023-12-24T12:04:26.579Z,66.51
2023-12-24T12:05:26.181Z,68.11
2023-12-24T12:06:26.302Z,66.65
2023-12-24T12:07:26.230Z,66.15
2023-12-24T12:08:26.326Z,67.16
2023-12-24T12:09:27.995Z,67.60
2023-12-24T12:10:26.517Z,64.68
2023-12-24T12:11:26.529Z,65.96
2023-12-24T12:12:26.596Z,67.86
2023-12-24T12:13:26.651Z,66.07
2023-12-24T12:15:26.774Z,66.57
2023-12-24T12:16:26.864Z,65.08
2023-12-24T12:17:27.011Z,66.38
2023-12-24T12:18:26.947Z,65.34
2023-12-24T12:19:27.105Z,66.30
2023-12-24T12:20:27.173Z,67.75
2023-12-24T12:21:27.148Z,66.34
2023-12-24T12:22:27.222Z,65.85
2023-12-24T12:23:27.381Z,66.02
2023-12-24T12:24:27.332Z,66.00
2023-12-24T12:25:27.392Z,66.64
2023-12-24T12:26:27.538Z,66.63
2023-12-24T12:27:27.586Z,64.83
2023-12-24T12:28:27.606Z,66.23
2023-12-24T12:29:27.697Z,65.86
2023-12-24T12:30:27.786Z,65.56
2023-12-24T12:31:27.782Z,65.85
2023-12-24T12:32:27.927Z,65.95
2023-12-24T12:33:27.999Z,67.40
2023-12-24T12:34:28.545Z,65.56
2023-12-24T12:35:28.121Z,67.74
2023-12-24T12:36:28.149Z,67.30
2023-12-24T12:37:28.204Z,66.83
2023-12-24T12:38:28.285Z,66.56
2023-12-24T12:39:28.366Z,65.72
2023-12-24T12:40:35.949Z,66.99
2023-12-24T12:41:29.439Z,67.09
2023-12-24T12:42:35.714Z,67.00
2023-12-24T12:43:29.396Z,67.09
2023-12-24T12:44:28.436Z,67.13
2023-12-24T12:45:28.372Z,67.32
2023-12-24T12:46:28.399Z,66.69
2023-12-24T12:47:28.485Z,66.21
2023-12-24T12:48:28.497Z,67.97
2023-12-24T12:49:28.426Z,66.71
2023-12-24T12:50:28.424Z,65.90
2023-12-24T12:51:28.514Z,67.18
2023-12-24T12:52:28.538Z,65.85
2023-12-24T12:53:28.666Z,64.38
2023-12-24T12:54:28.644Z,65.50